• Join FlightAware (Why Join?)
  • Login
  • US Flag 
09:16AM EDT


 

Airport Tracker/Info


-or-


 

Live Flight TrackerFlight Track Log ✈ AMF1021 ✈ 20-Aug-2013 ✈ KSAW - KLAN

Flight Track Log - Related Links

Times and Time Zones

All times are in EDT time to prevent confusion due to time zone crossing. See the AMF1021 flight status page for this flight to view local times or setup timezone preferences in your user account.

Time Position Orientation Groundspeed Altitude Reporting Facility
EDT Latitude Longitude Course Direction KTS MPH feet Rate Location/Type
07:36PM 46.2886 -87.3522 148° Southeast 183 211 3,800  Level Minneapolis Center
07:37PM 46.2403 -87.3028 145° Southeast 206 237 5,500 1,740 Climbing Minneapolis Center
07:38PM 46.1811 -87.2544 151° Southeast 222 255 7,400 1,800 Climbing Minneapolis Center
07:39PM 46.1253 -87.2058 149° Southeast 231 266 9,200 1,800 Climbing Minneapolis Center
07:40PM 46.0703 -87.1600 150° Southeast 222 255 11,200 1,740 Climbing Minneapolis Center
07:41PM 46.0156 -87.1150 150° Southeast 223 257 12,800 1,500 Climbing Minneapolis Center
07:42PM 45.9614 -87.0697 150° Southeast 223 257 14,300 1,260 Climbing Minneapolis Center
07:43PM 45.9039 -87.0222 150° Southeast 234 269 15,500 1,200 Climbing Minneapolis Center
07:44PM 45.8408 -86.9711 151° Southeast 238 274 16,900 720 Climbing Minneapolis Center
07:45PM 45.7789 -86.9183 149° Southeast 257 296 17,000  Climbing Minneapolis Center
07:46PM 45.7186 -86.8686 150° Southeast 270 311 17,000  Level Minneapolis Center
07:47PM 45.6383 -86.8022 150° Southeast 278 320 17,000  Level Minneapolis Center
07:48PM 45.5578 -86.7372 151° Southeast 279 321 17,000 -60 Level Minneapolis Center
07:50PM 45.4919 -86.6825 150° Southeast 274 315 16,900  Descending Minneapolis Center
07:51PM 45.4242 -86.6286 151° Southeast 279 321 17,000  Climbing Minneapolis Center
07:52PM 45.3583 -86.5747 150° Southeast 275 316 17,000  Level Minneapolis Center
07:53PM 45.2917 -86.5203 150° Southeast 276 318 17,000  Level Minneapolis Center
07:54PM 45.2242 -86.4650 150° Southeast 279 321 17,000  Level Minneapolis Center
07:55PM 45.1436 -86.4008 151° Southeast 277 319 17,000  Level Minneapolis Center
07:56PM 45.0769 -86.3467 150° Southeast 278 320 17,000  Level Minneapolis Center
07:57PM 45.0106 -86.2939 151° Southeast 275 316 17,000  Level Minneapolis Center
07:58PM 44.9436 -86.2392 150° Southeast 277 319 17,000  Level Minneapolis Center
07:59PM 44.8917 -86.1967 150° Southeast 273 314 17,000  Level Minneapolis Center
08:00PM 44.8000 -86.1264 151° Southeast 274 315 17,000  Level Minneapolis Center
08:01PM 44.7347 -86.0744 151° Southeast 279 321 17,000  Level Minneapolis Center
08:02PM 44.6686 -86.0203 150° Southeast 280 322 17,000  Level Minneapolis Center
08:03PM 44.6025 -85.9669 150° Southeast 276 318 17,000  Level Minneapolis Center
08:04PM 44.5339 -85.9153 152° Southeast 279 321 17,000  Level Minneapolis Center
08:05PM 44.4531 -85.8517 151° Southeast 278 320 17,000  Level Minneapolis Center
08:06PM 44.3856 -85.7981 150° Southeast 278 320 17,000  Level Minneapolis Center
08:07PM 44.3172 -85.7453 151° Southeast 280 322 17,000  Level Minneapolis Center
08:08PM 44.2497 -85.6928 151° Southeast 278 320 17,000  Level Minneapolis Center
08:09PM 44.1822 -85.6403 151° Southeast 278 320 17,000  Level Minneapolis Center
08:10PM 44.1158 -85.5881 151° Southeast 276 318 17,000  Level Minneapolis Center
08:11PM 44.0450 -85.5350 152° Southeast 275 316 17,000  Level Minneapolis Center
08:12PM 43.9775 -85.4842 152° Southeast 275 316 17,000  Level Minneapolis Center
08:13PM 43.9100 -85.4319 151° Southeast 276 318 17,000  Level Minneapolis Center
08:14PM 43.8294 -85.3697 151° Southeast 277 319 17,000  Level Minneapolis Center
08:15PM 43.7628 -85.3186 151° Southeast 275 316 17,000  Level Minneapolis Center
08:16PM 43.6947 -85.2686 152° Southeast 275 316 17,000  Level Minneapolis Center
08:17PM 43.6278 -85.2178 151° Southeast 275 316 17,000  Level Minneapolis Center
08:18PM 43.5869 -85.1878 152° Southeast 276 318 17,000  Level Chicago Center
08:19PM 43.5061 -85.1264 151° Southeast 276 318 17,000 -360 Level Chicago Center
08:20PM 43.4372 -85.0731 151° Southeast 284 327 16,300 -1,140 Descending Chicago Center
08:21PM 43.3647 -85.0189 151° Southeast 295 339 14,700 -1,440 Descending Chicago Center
08:22PM 43.2944 -84.9686 152° Southeast 287 330 13,400 -1,200 Descending Chicago Center
08:23PM 43.2222 -84.9156 152° Southeast 292 336 12,300 -1,020 Descending Chicago Center
08:24PM 43.1536 -84.8594 149° Southeast 286 329 11,300 -1,320 Descending Chicago Center
08:25PM 43.0739 -84.7903 148° Southeast 282 325 9,600 -1,380 Descending Chicago Center
08:26PM 43.0203 -84.7167 135° Southeast 274 315 8,500 -1,440 Descending Chicago Center
08:27PM 42.9778 -84.6311 124° Southeast 271 312 6,700 -1,680 Descending Chicago Center
08:28PM 42.9342 -84.5503 126° Southeast 267 307 5,100 -1,380 Descending Chicago Center
08:29PM 42.8717 -84.5150 158° South 254 292 3,900 -1,200 Descending Chicago Center
08:31PM 42.8046 -84.5663 160° South  Level Estimated